sensor_id;sensor_type;location;lat;lon;timestamp;pressure;altitude;pressure_sealevel;temperature;humidity
40940;BME280;26666;50.156;7.700;2023-05-23T00:02:42;100436.34;;;17.34;100.00
40940;BME280;26666;50.156;7.700;2023-05-23T00:07:44;100437.34;;;17.33;100.00
40940;BME280;26666;50.156;7.700;2023-05-23T00:12:46;100439.19;;;17.32;100.00
40940;BME280;26666;50.156;7.700;2023-05-23T00:17:49;100423.81;;;17.34;100.00
40940;BME280;26666;50.156;7.700;2023-05-23T00:22:51;100428.84;;;17.29;100.00
40940;BME280;26666;50.156;7.700;2023-05-23T00:27:52;100431.72;;;17.28;100.00
40940;BME280;26666;50.156;7.700;2023-05-23T00:32:55;100448.06;;;17.25;100.00
40940;BME280;26666;50.156;7.700;2023-05-23T00:37:57;100453.94;;;17.20;100.00
40940;BME280;26666;50.156;7.700;2023-05-23T00:42:59;100463.59;;;17.21;100.00
40940;BME280;26666;50.156;7.700;2023-05-23T00:48:03;100464.78;;;17.19;100.00
40940;BME280;26666;50.156;7.700;2023-05-23T00:53:05;100475.63;;;17.17;100.00
40940;BME280;26666;50.156;7.700;2023-05-23T00:58:07;100474.97;;;17.15;100.00
40940;BME280;26666;50.156;7.700;2023-05-23T01:03:11;100481.47;;;17.12;100.00
40940;BME280;26666;50.156;7.700;2023-05-23T01:08:13;100483.50;;;17.10;100.00
40940;BME280;26666;50.156;7.700;2023-05-23T01:13:20;100489.97;;;17.08;100.00
40940;BME280;26666;50.156;7.700;2023-05-23T01:18:32;100476.50;;;17.01;100.00
40940;BME280;26666;50.156;7.700;2023-05-23T01:23:54;100478.16;;;17.02;100.00
40940;BME280;26666;50.156;7.700;2023-05-23T01:29:08;100476.66;;;17.00;100.00
40940;BME280;26666;50.156;7.700;2023-05-23T01:34:12;100479.50;;;16.98;100.00
40940;BME280;26666;50.156;7.700;2023-05-23T01:39:14;100479.84;;;16.95;100.00
40940;BME280;26666;50.156;7.700;2023-05-23T01:44:17;100491.50;;;16.94;100.00
40940;BME280;26666;50.156;7.700;2023-05-23T01:49:21;100495.22;;;16.93;100.00
40940;BME280;26666;50.156;7.700;2023-05-23T01:54:25;100496.34;;;16.90;100.00
40940;BME280;26666;50.156;7.700;2023-05-23T01:59:28;100497.88;;;16.93;100.00
40940;BME280;26666;50.156;7.700;2023-05-23T02:04:30;100497.53;;;16.88;100.00
40940;BME280;26666;50.156;7.700;2023-05-23T02:09:32;100503.56;;;16.82;100.00
40940;BME280;26666;50.156;7.700;2023-05-23T02:14:35;100498.72;;;16.85;100.00
40940;BME280;26666;50.156;7.700;2023-05-23T02:19:37;100503.19;;;16.85;100.00
40940;BME280;26666;50.156;7.700;2023-05-23T02:24:38;100504.22;;;16.84;100.00
40940;BME280;26666;50.156;7.700;2023-05-23T02:29:42;100501.19;;;16.79;100.00
40940;BME280;26666;50.156;7.700;2023-05-23T02:34:43;100512.00;;;16.77;100.00
40940;BME280;26666;50.156;7.700;2023-05-23T02:39:45;100521.19;;;16.74;100.00
40940;BME280;26666;50.156;7.700;2023-05-23T02:44:48;100529.72;;;16.70;100.00
40940;BME280;26666;50.156;7.700;2023-05-23T02:49:50;100542.69;;;16.73;100.00
40940;BME280;26666;50.156;7.700;2023-05-23T02:54:51;100538.38;;;16.72;100.00
40940;BME280;26666;50.156;7.700;2023-05-23T02:59:54;100543.22;;;16.68;100.00
40940;BME280;26666;50.156;7.700;2023-05-23T03:04:56;100551.22;;;16.68;100.00
40940;BME280;26666;50.156;7.700;2023-05-23T03:09:58;100544.03;;;16.61;100.00
40940;BME280;26666;50.156;7.700;2023-05-23T03:15:01;100555.38;;;16.63;100.00
40940;BME280;26666;50.156;7.700;2023-05-23T03:20:04;100554.03;;;16.59;100.00
40940;BME280;26666;50.156;7.700;2023-05-23T03:25:06;100563.69;;;16.60;100.00
40940;BME280;26666;50.156;7.700;2023-05-23T03:30:11;100558.72;;;16.56;100.00
40940;BME280;26666;50.156;7.700;2023-05-23T03:35:12;100557.03;;;16.55;100.00
40940;BME280;26666;50.156;7.700;2023-05-23T03:40:14;100553.22;;;16.58;100.00
40940;BME280;26666;50.156;7.700;2023-05-23T03:45:17;100554.56;;;16.54;100.00
40940;BME280;26666;50.156;7.700;2023-05-23T03:50:19;100548.19;;;16.55;100.00
40940;BME280;26666;50.156;7.700;2023-05-23T03:55:21;100555.84;;;16.50;100.00
40940;BME280;26666;50.156;7.700;2023-05-23T04:00:24;100568.88;;;16.53;100.00
40940;BME280;26666;50.156;7.700;2023-05-23T04:05:26;100569.88;;;16.52;100.00
40940;BME280;26666;50.156;7.700;2023-05-23T04:10:27;100566.22;;;16.53;100.00
40940;BME280;26666;50.156;7.700;2023-05-23T04:15:30;100585.69;;;16.53;100.00
40940;BME280;26666;50.156;7.700;2023-05-23T04:20:32;100590.88;;;16.47;100.00
40940;BME280;26666;50.156;7.700;2023-05-23T04:25:34;100581.03;;;16.47;100.00
40940;BME280;26666;50.156;7.700;2023-05-23T04:30:37;100587.38;;;16.46;100.00
40940;BME280;26666;50.156;7.700;2023-05-23T04:35:38;100594.53;;;16.46;100.00
40940;BME280;26666;50.156;7.700;2023-05-23T04:40:41;100601.31;;;16.32;100.00
40940;BME280;26666;50.156;7.700;2023-05-23T04:45:44;100597.53;;;16.43;100.00
40940;BME280;26666;50.156;7.700;2023-05-23T04:50:46;100610.72;;;16.44;100.00
40940;BME280;26666;50.156;7.700;2023-05-23T04:55:47;100610.53;;;16.46;100.00
40940;BME280;26666;50.156;7.700;2023-05-23T05:00:51;100614.22;;;16.45;100.00
40940;BME280;26666;50.156;7.700;2023-05-23T05:05:53;100614.22;;;16.45;100.00
40940;BME280;26666;50.156;7.700;2023-05-23T05:10:55;100613.34;;;16.36;100.00
40940;BME280;26666;50.156;7.700;2023-05-23T05:15:58;100622.00;;;16.38;100.00
40940;BME280;26666;50.156;7.700;2023-05-23T05:20:59;100622.53;;;16.42;100.00
40940;BME280;26666;50.156;7.700;2023-05-23T05:26:01;100622.66;;;16.32;100.00
40940;BME280;26666;50.156;7.700;2023-05-23T05:31:04;100618.66;;;16.28;100.00
40940;BME280;26666;50.156;7.700;2023-05-23T05:36:06;100618.50;;;16.38;100.00
40940;BME280;26666;50.156;7.700;2023-05-23T05:41:08;100624.00;;;16.36;100.00
40940;BME280;26666;50.156;7.700;2023-05-23T05:46:11;100629.84;;;16.40;100.00
40940;BME280;26666;50.156;7.700;2023-05-23T05:51:13;100628.50;;;16.35;100.00
40940;BME280;26666;50.156;7.700;2023-05-23T05:56:15;100632.34;;;16.33;100.00
40940;BME280;26666;50.156;7.700;2023-05-23T06:01:18;100642.00;;;16.34;100.00
40940;BME280;26666;50.156;7.700;2023-05-23T06:06:19;100646.81;;;16.30;100.00
40940;BME280;26666;50.156;7.700;2023-05-23T06:11:21;100653.81;;;16.31;100.00
40940;BME280;26666;50.156;7.700;2023-05-23T06:16:24;100654.31;;;16.27;100.00
40940;BME280;26666;50.156;7.700;2023-05-23T06:21:26;100663.47;;;16.24;100.00
40940;BME280;26666;50.156;7.700;2023-05-23T06:26:28;100671.59;;;16.23;100.00
40940;BME280;26666;50.156;7.700;2023-05-23T06:31:31;100676.13;;;16.30;100.00
40940;BME280;26666;50.156;7.700;2023-05-23T06:36:32;100669.00;;;16.31;100.00
40940;BME280;26666;50.156;7.700;2023-05-23T06:41:35;100667.00;;;16.33;100.00
40940;BME280;26666;50.156;7.700;2023-05-23T06:46:38;100673.00;;;16.27;100.00
40940;BME280;26666;50.156;7.700;2023-05-23T06:51:41;100674.28;;;16.23;100.00
40940;BME280;26666;50.156;7.700;2023-05-23T06:56:43;100669.47;;;16.26;100.00
40940;BME280;26666;50.156;7.700;2023-05-23T07:01:46;100675.47;;;16.28;100.00
40940;BME280;26666;50.156;7.700;2023-05-23T07:06:48;100675.31;;;16.30;100.00
40940;BME280;26666;50.156;7.700;2023-05-23T07:11:49;100681.31;;;16.32;100.00
40940;BME280;26666;50.156;7.700;2023-05-23T07:16:52;100673.16;;;16.33;100.00
40940;BME280;26666;50.156;7.700;2023-05-23T07:21:54;100676.13;;;16.30;100.00
40940;BME280;26666;50.156;7.700;2023-05-23T07:26:56;100676.13;;;16.30;100.00
40940;BME280;26666;50.156;7.700;2023-05-23T07:31:59;100673.69;;;16.37;100.00
40940;BME280;26666;50.156;7.700;2023-05-23T07:37:01;100682.19;;;16.32;100.00
40940;BME280;26666;50.156;7.700;2023-05-23T07:42:03;100677.31;;;16.28;100.00
40940;BME280;26666;50.156;7.700;2023-05-23T07:47:06;100686.66;;;16.32;100.00
40940;BME280;26666;50.156;7.700;2023-05-23T07:52:07;100691.47;;;16.28;100.00
40940;BME280;26666;50.156;7.700;2023-05-23T07:57:09;100693.31;;;16.28;100.00
40940;BME280;26666;50.156;7.700;2023-05-23T08:02:12;100688.34;;;16.33;100.00
40940;BME280;26666;50.156;7.700;2023-05-23T08:07:14;100692.47;;;16.27;100.00
40940;BME280;26666;50.156;7.700;2023-05-23T08:12:19;100707.00;;;16.33;100.00
40940;BME280;26666;50.156;7.700;2023-05-23T08:17:25;100709.53;;;16.34;100.00
40940;BME280;26666;50.156;7.700;2023-05-23T08:22:27;100723.69;;;16.35;100.00
40940;BME280;26666;50.156;7.700;2023-05-23T08:27:29;100725.31;;;16.28;100.00
40940;BME280;26666;50.156;7.700;2023-05-23T08:32:32;100718.50;;;16.33;100.00
40940;BME280;26666;50.156;7.700;2023-05-23T08:37:34;100723.66;;;16.27;100.00
40940;BME280;26666;50.156;7.700;2023-05-23T08:42:36;100724.66;;;16.34;100.00
40940;BME280;26666;50.156;7.700;2023-05-23T08:47:40;100731.16;;;16.31;100.00
40940;BME280;26666;50.156;7.700;2023-05-23T08:52:54;100735.97;;;16.28;100.00
40940;BME280;26666;50.156;7.700;2023-05-23T08:57:57;100745.81;;;16.27;100.00
40940;BME280;26666;50.156;7.700;2023-05-23T09:03:00;100742.81;;;16.30;100.00
40940;BME280;26666;50.156;7.700;2023-05-23T09:08:02;100746.47;;;16.29;100.00
40940;BME280;26666;50.156;7.700;2023-05-23T09:13:04;100750.47;;;16.25;100.00
40940;BME280;26666;50.156;7.700;2023-05-23T09:18:07;100746.19;;;16.32;100.00
40940;BME280;26666;50.156;7.700;2023-05-23T09:23:09;100751.81;;;16.29;100.00
40940;BME280;26666;50.156;7.700;2023-05-23T09:28:11;100751.78;;;16.21;100.00
40940;BME280;26666;50.156;7.700;2023-05-23T09:33:14;100762.06;;;16.16;100.00
40940;BME280;26666;50.156;7.700;2023-05-23T09:38:17;100772.91;;;16.23;100.00
40940;BME280;26666;50.156;7.700;2023-05-23T09:43:22;100773.78;;;16.23;100.00
40940;BME280;26666;50.156;7.700;2023-05-23T09:48:28;100773.88;;;16.13;100.00
40940;BME280;26666;50.156;7.700;2023-05-23T09:53:30;100781.50;;;16.08;100.00
40940;BME280;26666;50.156;7.700;2023-05-23T09:58:32;100781.13;;;16.03;100.00
40940;BME280;26666;50.156;7.700;2023-05-23T10:03:41;100778.16;;;16.06;100.00
40940;BME280;26666;50.156;7.700;2023-05-23T10:08:52;100768.03;;;16.10;100.00
40940;BME280;26666;50.156;7.700;2023-05-23T10:13:56;100778.53;;;16.11;100.00
40940;BME280;26666;50.156;7.700;2023-05-23T10:19:05;100779.69;;;16.09;100.00
40940;BME280;26666;50.156;7.700;2023-05-23T10:24:08;100792.03;;;16.10;100.00
40940;BME280;26666;50.156;7.700;2023-05-23T10:29:09;100781.03;;;16.13;100.00
40940;BME280;26666;50.156;7.700;2023-05-23T10:34:19;100788.03;;;16.14;100.00
40940;BME280;26666;50.156;7.700;2023-05-23T10:39:31;100783.09;;;16.19;100.00
40940;BME280;26666;50.156;7.700;2023-05-23T10:44:35;100777.66;;;16.29;100.00
40940;BME280;26666;50.156;7.700;2023-05-23T10:49:39;100776.19;;;16.34;100.00
40940;BME280;26666;50.156;7.700;2023-05-23T10:54:45;100773.59;;;16.51;100.00
40940;BME280;26666;50.156;7.700;2023-05-23T10:59:49;100784.97;;;16.61;100.00
40940;BME280;26666;50.156;7.700;2023-05-23T11:05:20;100780.00;;;16.66;100.00
40940;BME280;26666;50.156;7.700;2023-05-23T11:10:22;100785.28;;;16.58;100.00
40940;BME280;26666;50.156;7.700;2023-05-23T11:15:23;100782.63;;;16.58;100.00
40940;BME280;26666;50.156;7.700;2023-05-23T11:20:29;100779.78;;;16.60;100.00
40940;BME280;26666;50.156;7.700;2023-05-23T11:25:41;100787.63;;;16.61;100.00
40940;BME280;26666;50.156;7.700;2023-05-23T11:30:43;100785.09;;;16.60;100.00
40940;BME280;26666;50.156;7.700;2023-05-23T11:35:47;100779.59;;;16.53;100.00
40940;BME280;26666;50.156;7.700;2023-05-23T11:40:53;100793.44;;;16.56;100.00
40940;BME280;26666;50.156;7.700;2023-05-23T11:45:55;100797.91;;;16.48;100.00
40940;BME280;26666;50.156;7.700;2023-05-23T11:50:58;100806.19;;;16.36;100.00
40940;BME280;26666;50.156;7.700;2023-05-23T11:56:01;100816.00;;;16.36;100.00
40940;BME280;26666;50.156;7.700;2023-05-23T12:01:04;100828.13;;;16.30;100.00
40940;BME280;26666;50.156;7.700;2023-05-23T12:06:07;100828.31;;;16.29;100.00
40940;BME280;26666;50.156;7.700;2023-05-23T12:11:09;100828.09;;;16.22;100.00
40940;BME280;26666;50.156;7.700;2023-05-23T12:16:12;100834.25;;;16.23;100.00
40940;BME280;26666;50.156;7.700;2023-05-23T12:21:16;100832.97;;;16.27;100.00
40940;BME280;26666;50.156;7.700;2023-05-23T12:26:18;100834.09;;;16.24;100.00
40940;BME280;26666;50.156;7.700;2023-05-23T12:31:20;100842.19;;;16.14;100.00
40940;BME280;26666;50.156;7.700;2023-05-23T12:36:26;100846.22;;;16.19;100.00
40940;BME280;26666;50.156;7.700;2023-05-23T12:41:31;100839.56;;;16.23;100.00
40940;BME280;26666;50.156;7.700;2023-05-23T12:46:33;100847.06;;;16.19;100.00
40940;BME280;26666;50.156;7.700;2023-05-23T12:51:36;100851.41;;;16.20;100.00
40940;BME280;26666;50.156;7.700;2023-05-23T12:56:38;100855.75;;;16.21;100.00
40940;BME280;26666;50.156;7.700;2023-05-23T13:01:40;100848.53;;;16.13;100.00
40940;BME280;26666;50.156;7.700;2023-05-23T13:06:43;100855.91;;;16.20;100.00
40940;BME280;26666;50.156;7.700;2023-05-23T13:11:45;100858.34;;;16.13;100.00
40940;BME280;26666;50.156;7.700;2023-05-23T13:16:47;100850.41;;;16.21;100.00
40940;BME280;26666;50.156;7.700;2023-05-23T13:21:50;100857.75;;;16.19;100.00
40940;BME280;26666;50.156;7.700;2023-05-23T13:26:52;100865.34;;;16.14;100.00
40940;BME280;26666;50.156;7.700;2023-05-23T13:31:54;100860.56;;;16.17;100.00
40940;BME280;26666;50.156;7.700;2023-05-23T13:37:00;100862.53;;;16.15;100.00
40940;BME280;26666;50.156;7.700;2023-05-23T13:42:02;100867.72;;;16.17;100.00
40940;BME280;26666;50.156;7.700;2023-05-23T13:47:11;100857.94;;;16.26;100.00
40940;BME280;26666;50.156;7.700;2023-05-23T13:52:15;100843.31;;;16.30;100.00
40940;BME280;26666;50.156;7.700;2023-05-23T13:57:17;100840.22;;;16.43;100.00
40940;BME280;26666;50.156;7.700;2023-05-23T14:02:19;100841.94;;;16.52;100.00
40940;BME280;26666;50.156;7.700;2023-05-23T14:07:22;100836.28;;;16.55;100.00
40940;BME280;26666;50.156;7.700;2023-05-23T14:12:23;100828.44;;;16.53;100.00
40940;BME280;26666;50.156;7.700;2023-05-23T14:17:25;100843.47;;;16.54;100.00
40940;BME280;26666;50.156;7.700;2023-05-23T14:22:32;100849.25;;;16.50;100.00
40940;BME280;26666;50.156;7.700;2023-05-23T14:27:33;100845.59;;;16.51;100.00
40940;BME280;26666;50.156;7.700;2023-05-23T14:32:35;100847.28;;;16.52;100.00
40940;BME280;26666;50.156;7.700;2023-05-23T14:37:38;100849.97;;;16.52;100.00
40940;BME280;26666;50.156;7.700;2023-05-23T14:42:40;100855.22;;;16.44;100.00
40940;BME280;26666;50.156;7.700;2023-05-23T14:47:42;100850.63;;;16.54;100.00
40940;BME280;26666;50.156;7.700;2023-05-23T14:52:45;100845.31;;;16.54;100.00
40940;BME280;26666;50.156;7.700;2023-05-23T14:57:47;100845.66;;;16.59;100.00
40940;BME280;26666;50.156;7.700;2023-05-23T15:02:48;100856.41;;;16.49;100.00
40940;BME280;26666;50.156;7.700;2023-05-23T15:07:51;100857.44;;;16.48;98.74
40940;BME280;26666;50.156;7.700;2023-05-23T15:12:56;100852.03;;;16.40;100.00
40940;BME280;26666;50.156;7.700;2023-05-23T15:17:58;100855.41;;;16.42;100.00
40940;BME280;26666;50.156;7.700;2023-05-23T15:23:02;100855.06;;;16.45;99.06
40940;BME280;26666;50.156;7.700;2023-05-23T15:28:04;100851.41;;;16.46;93.96
40940;BME280;26666;50.156;7.700;2023-05-23T15:33:08;100855.44;;;16.50;95.59
40940;BME280;26666;50.156;7.700;2023-05-23T15:38:11;100856.09;;;16.44;91.73
40940;BME280;26666;50.156;7.700;2023-05-23T15:43:15;100852.94;;;16.49;96.16
40940;BME280;26666;50.156;7.700;2023-05-23T15:48:17;100866.94;;;16.51;95.39
40940;BME280;26666;50.156;7.700;2023-05-23T15:53:20;100870.00;;;16.38;89.98
40940;BME280;26666;50.156;7.700;2023-05-23T15:58:22;100863.81;;;16.29;87.97
40940;BME280;26666;50.156;7.700;2023-05-23T16:03:24;100860.75;;;16.42;90.57
40940;BME280;26666;50.156;7.700;2023-05-23T16:08:27;100862.91;;;16.47;88.50
40940;BME280;26666;50.156;7.700;2023-05-23T16:13:28;100862.53;;;16.42;86.13
40940;BME280;26666;50.156;7.700;2023-05-23T16:18:30;100856.56;;;16.48;87.44
40940;BME280;26666;50.156;7.700;2023-05-23T16:23:33;100860.09;;;16.48;89.89
40940;BME280;26666;50.156;7.700;2023-05-23T16:28:38;100853.03;;;16.39;84.49
40940;BME280;26666;50.156;7.700;2023-05-23T16:33:40;100860.50;;;16.35;85.44
40940;BME280;26666;50.156;7.700;2023-05-23T16:38:43;100842.38;;;16.39;85.98
40940;BME280;26666;50.156;7.700;2023-05-23T16:43:45;100839.84;;;16.38;87.03
40940;BME280;26666;50.156;7.700;2023-05-23T16:48:46;100841.00;;;16.35;85.64
40940;BME280;26666;50.156;7.700;2023-05-23T16:53:50;100849.78;;;16.27;85.61
40940;BME280;26666;50.156;7.700;2023-05-23T16:58:54;100842.31;;;16.31;87.69
40940;BME280;26666;50.156;7.700;2023-05-23T17:03:56;100840.19;;;16.34;89.35
40940;BME280;26666;50.156;7.700;2023-05-23T17:08:59;100849.69;;;16.37;89.52
40940;BME280;26666;50.156;7.700;2023-05-23T17:14:04;100850.66;;;16.36;87.81
40940;BME280;26666;50.156;7.700;2023-05-23T17:19:05;100845.53;;;16.34;85.85
40940;BME280;26666;50.156;7.700;2023-05-23T17:24:09;100847.28;;;16.26;82.99
40940;BME280;26666;50.156;7.700;2023-05-23T17:29:10;100850.47;;;16.29;82.35
40940;BME280;26666;50.156;7.700;2023-05-23T17:34:12;100853.50;;;16.34;84.27
40940;BME280;26666;50.156;7.700;2023-05-23T17:39:15;100847.28;;;16.26;81.18
40940;BME280;26666;50.156;7.700;2023-05-23T17:44:17;100851.88;;;16.15;79.15
40940;BME280;26666;50.156;7.700;2023-05-23T17:49:19;100847.38;;;16.16;79.14
40940;BME280;26666;50.156;7.700;2023-05-23T17:54:22;100847.66;;;16.13;78.06
40940;BME280;26666;50.156;7.700;2023-05-23T17:59:24;100851.06;;;16.15;80.05
40940;BME280;26666;50.156;7.700;2023-05-23T18:04:25;100859.19;;;16.13;80.39
40940;BME280;26666;50.156;7.700;2023-05-23T18:09:29;100852.84;;;16.14;84.99
40940;BME280;26666;50.156;7.700;2023-05-23T18:14:30;100870.16;;;16.10;85.39
40940;BME280;26666;50.156;7.700;2023-05-23T18:19:33;100868.25;;;16.03;83.50
40940;BME280;26666;50.156;7.700;2023-05-23T18:24:36;100875.44;;;16.02;81.34
40940;BME280;26666;50.156;7.700;2023-05-23T18:29:38;100873.75;;;16.01;81.98
40940;BME280;26666;50.156;7.700;2023-05-23T18:34:40;100871.25;;;16.00;84.58
40940;BME280;26666;50.156;7.700;2023-05-23T18:39:43;100875.03;;;15.97;84.97
40940;BME280;26666;50.156;7.700;2023-05-23T18:44:45;100875.03;;;15.97;86.89
40940;BME280;26666;50.156;7.700;2023-05-23T18:49:46;100878.03;;;15.94;86.14
40940;BME280;26666;50.156;7.700;2023-05-23T18:54:50;100880.63;;;15.86;88.73
40940;BME280;26666;50.156;7.700;2023-05-23T18:59:52;100891.50;;;15.74;88.77
40940;BME280;26666;50.156;7.700;2023-05-23T19:04:53;100890.09;;;15.70;88.95
40940;BME280;26666;50.156;7.700;2023-05-23T19:09:57;100894.50;;;15.62;89.28
40940;BME280;26666;50.156;7.700;2023-05-23T19:14:58;100899.75;;;15.53;88.29
40940;BME280;26666;50.156;7.700;2023-05-23T19:20:00;100910.69;;;15.50;87.89
40940;BME280;26666;50.156;7.700;2023-05-23T19:25:04;100915.41;;;15.56;85.96
40940;BME280;26666;50.156;7.700;2023-05-23T19:30:07;100928.41;;;15.42;86.75
40940;BME280;26666;50.156;7.700;2023-05-23T19:35:09;100926.78;;;15.31;86.56
40940;BME280;26666;50.156;7.700;2023-05-23T19:40:12;100927.09;;;15.28;87.57
40940;BME280;26666;50.156;7.700;2023-05-23T19:45:14;100934.94;;;15.19;87.64
40940;BME280;26666;50.156;7.700;2023-05-23T19:50:16;100934.84;;;15.11;88.68
40940;BME280;26666;50.156;7.700;2023-05-23T19:55:19;100934.56;;;15.14;88.57
40940;BME280;26666;50.156;7.700;2023-05-23T20:00:21;100944.66;;;15.11;88.42
40940;BME280;26666;50.156;7.700;2023-05-23T20:05:23;100937.81;;;15.08;87.84
40940;BME280;26666;50.156;7.700;2023-05-23T20:10:26;100943.69;;;15.12;88.26
40940;BME280;26666;50.156;7.700;2023-05-23T20:15:28;100946.22;;;15.04;88.35
40940;BME280;26666;50.156;7.700;2023-05-23T20:20:40;100950.16;;;14.99;88.42
40940;BME280;26666;50.156;7.700;2023-05-23T20:25:44;100959.97;;;14.99;87.60
40940;BME280;26666;50.156;7.700;2023-05-23T20:30:45;100962.22;;;14.94;87.02
40940;BME280;26666;50.156;7.700;2023-05-23T20:35:47;100964.53;;;14.79;87.58
40940;BME280;26666;50.156;7.700;2023-05-23T20:40:51;100966.34;;;14.78;88.08
40940;BME280;26666;50.156;7.700;2023-05-23T20:45:53;100965.13;;;14.73;88.35
40940;BME280;26666;50.156;7.700;2023-05-23T20:50:55;100974.63;;;14.75;88.09
40940;BME280;26666;50.156;7.700;2023-05-23T20:55:58;100977.69;;;14.71;88.12
40940;BME280;26666;50.156;7.700;2023-05-23T21:01:00;100985.69;;;14.61;88.88
40940;BME280;26666;50.156;7.700;2023-05-23T21:06:02;100987.38;;;14.62;88.34
40940;BME280;26666;50.156;7.700;2023-05-23T21:11:05;100986.38;;;14.44;88.57
40940;BME280;26666;50.156;7.700;2023-05-23T21:16:07;100994.06;;;14.47;88.95
40940;BME280;26666;50.156;7.700;2023-05-23T21:21:08;100995.06;;;14.36;89.92
40940;BME280;26666;50.156;7.700;2023-05-23T21:26:11;100999.53;;;14.35;89.28
40940;BME280;26666;50.156;7.700;2023-05-23T21:31:13;101005.28;;;14.31;89.46
40940;BME280;26666;50.156;7.700;2023-05-23T21:36:15;101016.34;;;14.26;89.12
40940;BME280;26666;50.156;7.700;2023-05-23T21:41:18;101017.03;;;14.28;88.85
40940;BME280;26666;50.156;7.700;2023-05-23T21:46:20;101017.16;;;14.17;88.56
40940;BME280;26666;50.156;7.700;2023-05-23T21:51:22;101018.69;;;14.10;88.51
40940;BME280;26666;50.156;7.700;2023-05-23T21:56:25;101027.63;;;13.99;88.79
40940;BME280;26666;50.156;7.700;2023-05-23T22:01:26;101042.13;;;13.95;88.83
40940;BME280;26666;50.156;7.700;2023-05-23T22:06:28;101030.81;;;13.93;88.84
40940;BME280;26666;50.156;7.700;2023-05-23T22:11:31;101044.50;;;13.88;89.57
40940;BME280;26666;50.156;7.700;2023-05-23T22:16:33;101041.03;;;13.88;90.10
40940;BME280;26666;50.156;7.700;2023-05-23T22:21:35;101054.31;;;13.88;90.49
40940;BME280;26666;50.156;7.700;2023-05-23T22:26:38;101047.84;;;13.80;91.13
40940;BME280;26666;50.156;7.700;2023-05-23T22:31:40;101047.44;;;13.85;91.59
40940;BME280;26666;50.156;7.700;2023-05-23T22:36:42;101046.56;;;13.75;91.31
40940;BME280;26666;50.156;7.700;2023-05-23T22:41:45;101051.25;;;13.61;92.60
40940;BME280;26666;50.156;7.700;2023-05-23T22:46:47;101043.63;;;13.68;92.45
40940;BME280;26666;50.156;7.700;2023-05-23T22:51:49;101043.53;;;13.79;91.98
40940;BME280;26666;50.156;7.700;2023-05-23T22:56:52;101040.00;;;13.79;91.42
40940;BME280;26666;50.156;7.700;2023-05-23T23:01:53;101052.41;;;13.69;91.03
40940;BME280;26666;50.156;7.700;2023-05-23T23:06:55;101052.28;;;13.70;90.29
40940;BME280;26666;50.156;7.700;2023-05-23T23:11:58;101051.09;;;13.53;90.33
40940;BME280;26666;50.156;7.700;2023-05-23T23:17:00;101053.63;;;13.55;90.05
40940;BME280;26666;50.156;7.700;2023-05-23T23:22:02;101046.03;;;13.50;90.18
40940;BME280;26666;50.156;7.700;2023-05-23T23:27:06;101054.69;;;13.43;89.62
40940;BME280;26666;50.156;7.700;2023-05-23T23:32:07;101057.31;;;13.33;89.86
40940;BME280;26666;50.156;7.700;2023-05-23T23:37:09;101055.63;;;13.32;89.13
40940;BME280;26666;50.156;7.700;2023-05-23T23:42:12;101053.78;;;13.32;88.62
40940;BME280;26666;50.156;7.700;2023-05-23T23:47:14;101047.53;;;13.33;88.40
40940;BME280;26666;50.156;7.700;2023-05-23T23:52:16;101050.09;;;13.24;88.46
40940;BME280;26666;50.156;7.700;2023-05-23T23:57:19;101055.53;;;13.22;88.40
